createdAt,value
2023-03-25T00:05:59.156Z,99.90
2023-03-25T00:08:49.633Z,99.90
2023-03-25T00:16:02.708Z,99.90
2023-03-25T00:18:44.435Z,99.90
2023-03-25T00:33:23.589Z,99.90
2023-03-25T00:36:22.471Z,99.90
2023-03-25T00:41:31.589Z,99.90
2023-03-25T00:44:07.924Z,99.90
2023-03-25T00:46:48.183Z,99.90
2023-03-25T00:49:15.726Z,99.90
2023-03-25T00:52:38.808Z,99.90
2023-03-25T00:55:31.354Z,99.90
2023-03-25T00:58:36.763Z,99.90
2023-03-25T01:01:37.158Z,99.90
2023-03-25T01:04:30.890Z,99.90
2023-03-25T01:08:17.710Z,99.90
2023-03-25T01:16:35.169Z,99.90
2023-03-25T01:19:25.225Z,99.90
2023-03-25T01:22:26.876Z,99.90
2023-03-25T01:28:56.919Z,99.90
2023-03-25T01:32:01.399Z,99.90
2023-03-25T01:41:18.720Z,99.90
2023-03-25T01:54:59.046Z,99.90
2023-03-25T02:08:51.948Z,99.90
2023-03-25T02:14:47.426Z,99.90
2023-03-25T02:18:00.738Z,99.90
2023-03-25T02:21:50.745Z,99.90
2023-03-25T02:29:09.619Z,99.90
2023-03-25T02:32:24.692Z,99.90
2023-03-25T02:36:14.568Z,99.90
2023-03-25T02:39:41.412Z,99.90
2023-03-25T02:44:14.375Z,99.90
2023-03-25T02:46:42.975Z,99.90
2023-03-25T02:49:50.824Z,99.90
2023-03-25T02:53:24.279Z,99.90
2023-03-25T02:56:31.309Z,99.90
2023-03-25T02:59:50.869Z,99.90
2023-03-25T03:02:53.120Z,99.90
2023-03-25T03:06:26.236Z,99.90
2023-03-25T03:09:44.803Z,99.90
2023-03-25T03:13:29.517Z,99.90
2023-03-25T03:17:25.921Z,99.90
2023-03-25T03:20:55.243Z,99.90
2023-03-25T03:24:11.747Z,99.90
2023-03-25T03:27:50.397Z,99.90
2023-03-25T03:30:57.211Z,99.90
2023-03-25T03:34:37.187Z,99.90
2023-03-25T03:38:14.293Z,99.90
2023-03-25T03:41:44.068Z,99.90
2023-03-25T03:45:04.153Z,99.90
2023-03-25T03:48:45.736Z,99.90
2023-03-25T03:55:44.473Z,99.90
2023-03-25T04:03:43.360Z,99.90
2023-03-25T04:07:08.747Z,99.90
2023-03-25T04:14:11.361Z,99.90
2023-03-25T04:17:42.561Z,99.90
2023-03-25T04:21:36.669Z,99.90
2023-03-25T04:27:51.223Z,99.90
2023-03-25T04:31:20.275Z,99.90
2023-03-25T04:33:48.717Z,99.90
2023-03-25T04:39:36.714Z,99.90
2023-03-25T04:42:26.249Z,99.90
2023-03-25T04:48:17.283Z,99.90
2023-03-25T04:50:44.433Z,99.90
2023-03-25T04:57:14.447Z,99.90
2023-03-25T04:59:44.568Z,99.90
2023-03-25T05:02:54.325Z,99.90
2023-03-25T05:05:38.605Z,99.90
2023-03-25T05:11:20.364Z,99.90
2023-03-25T05:13:56.804Z,99.90
2023-03-25T05:23:31.711Z,99.90
2023-03-25T05:29:37.571Z,99.90
2023-03-25T05:33:01.881Z,99.90
2023-03-25T05:36:24.700Z,99.90
2023-03-25T05:39:15.977Z,99.90
2023-03-25T05:48:13.267Z,99.90
2023-03-25T05:51:17.944Z,99.90
2023-03-25T05:54:18.835Z,99.90
2023-03-25T05:59:35.424Z,99.90
2023-03-25T06:05:42.504Z,99.90
2023-03-25T06:09:12.348Z,99.90
2023-03-25T06:18:40.841Z,99.90
2023-03-25T06:21:55.734Z,99.90
2023-03-25T06:25:06.532Z,99.90
2023-03-25T06:27:41.393Z,99.90
2023-03-25T06:31:21.398Z,99.90
2023-03-25T06:34:02.303Z,99.90
2023-03-25T06:36:31.699Z,99.90
2023-03-25T06:39:20.717Z,99.90
2023-03-25T06:42:09.279Z,99.90
2023-03-25T06:44:50.702Z,99.90
2023-03-25T06:47:25.495Z,99.90
2023-03-25T06:50:11.156Z,99.90
2023-03-25T06:53:03.183Z,99.90
2023-03-25T06:56:09.173Z,99.90
2023-03-25T06:59:05.567Z,99.90
2023-03-25T07:02:11.396Z,99.90
2023-03-25T07:04:43.361Z,99.90
2023-03-25T07:07:22.198Z,99.90
2023-03-25T07:10:05.017Z,99.90
2023-03-25T07:12:47.520Z,99.90
2023-03-25T07:15:32.248Z,99.90
2023-03-25T07:18:21.616Z,99.90
2023-03-25T07:21:00.564Z,99.90
2023-03-25T07:24:22.016Z,99.90
2023-03-25T07:26:54.410Z,99.90
2023-03-25T07:29:22.416Z,99.90
2023-03-25T07:31:49.834Z,99.90
2023-03-25T07:34:44.900Z,99.90
2023-03-25T07:37:39.989Z,99.90
2023-03-25T07:40:38.831Z,99.90
2023-03-25T07:43:12.818Z,99.90
2023-03-25T07:45:49.533Z,99.90
2023-03-25T07:48:29.872Z,99.90
2023-03-25T07:52:17.009Z,99.90
2023-03-25T07:54:54.546Z,99.90
2023-03-25T07:57:27.618Z,99.90
2023-03-25T08:00:01.512Z,99.90
2023-03-25T08:02:36.937Z,99.90
2023-03-25T08:05:06.003Z,99.90
2023-03-25T08:07:34.339Z,99.90
2023-03-25T08:10:03.096Z,99.90
2023-03-25T08:12:30.484Z,99.90
2023-03-25T08:15:01.748Z,99.90
2023-03-25T08:17:31.516Z,99.90
2023-03-25T08:20:06.429Z,99.90
2023-03-25T08:25:26.466Z,99.90
2023-03-25T08:28:08.720Z,99.90
2023-03-25T08:30:55.493Z,99.90
2023-03-25T08:33:36.607Z,99.90
2023-03-25T08:36:20.324Z,99.90
2023-03-25T08:39:13.257Z,99.90
2023-03-25T08:41:54.887Z,99.90
2023-03-25T08:44:23.337Z,99.90
2023-03-25T08:46:56.590Z,99.90
2023-03-25T08:49:24.362Z,99.90
2023-03-25T08:51:51.843Z,99.90
2023-03-25T08:54:30.131Z,99.90
2023-03-25T08:57:01.596Z,99.90
2023-03-25T08:59:35.322Z,99.90
2023-03-25T09:02:11.535Z,99.90
2023-03-25T09:04:46.628Z,99.90
2023-03-25T09:07:16.740Z,99.90
2023-03-25T09:09:55.237Z,99.90
2023-03-25T09:12:27.974Z,99.90
2023-03-25T09:15:02.299Z,99.90
2023-03-25T09:17:44.976Z,99.90
2023-03-25T09:20:19.258Z,99.90
2023-03-25T09:23:01.654Z,99.90
2023-03-25T09:25:37.402Z,99.90
2023-03-25T09:28:24.703Z,99.90
2023-03-25T09:31:34.652Z,99.90
2023-03-25T09:34:24.203Z,99.90
2023-03-25T09:37:24.310Z,99.90
2023-03-25T09:40:10.964Z,99.90
2023-03-25T09:43:38.992Z,99.90
2023-03-25T09:46:30.685Z,99.90
2023-03-25T09:49:07.299Z,99.90
2023-03-25T09:52:02.419Z,99.90
2023-03-25T09:54:37.524Z,99.90
2023-03-25T09:57:34.478Z,99.90
2023-03-25T10:00:45.763Z,99.90
2023-03-25T10:03:35.401Z,99.90
2023-03-25T10:06:25.411Z,99.90
2023-03-25T10:09:42.986Z,99.90
2023-03-25T10:12:46.341Z,99.90
2023-03-25T10:15:40.835Z,99.90
2023-03-25T10:18:30.102Z,99.90
2023-03-25T10:21:22.680Z,99.90
2023-03-25T10:24:49.898Z,99.90
2023-03-25T10:27:42.220Z,99.90
2023-03-25T10:30:26.682Z,99.90
2023-03-25T10:33:01.928Z,99.90
2023-03-25T10:35:40.624Z,99.90
2023-03-25T10:38:28.633Z,99.90
2023-03-25T10:41:42.624Z,99.90
2023-03-25T10:44:22.709Z,99.90
2023-03-25T10:47:16.106Z,99.90
2023-03-25T10:49:47.441Z,99.90
2023-03-25T10:52:16.657Z,99.90
2023-03-25T10:54:57.407Z,99.90
2023-03-25T10:57:32.290Z,99.90
2023-03-25T11:00:19.777Z,99.90
2023-03-25T11:02:49.545Z,99.90
2023-03-25T11:05:27.086Z,99.90
2023-03-25T11:08:18.496Z,99.90
2023-03-25T11:10:57.934Z,99.90
2023-03-25T11:13:30.092Z,99.90
2023-03-25T11:16:04.513Z,99.90
2023-03-25T11:18:44.020Z,99.90
2023-03-25T11:21:16.433Z,99.90
2023-03-25T11:23:53.371Z,99.90
2023-03-25T11:26:27.895Z,99.30
2023-03-25T11:29:19.107Z,98.80
2023-03-25T11:32:09.119Z,98.20
2023-03-25T11:34:42.599Z,97.30
2023-03-25T11:37:36.754Z,97.50
2023-03-25T11:40:20.533Z,96.60
2023-03-25T11:42:56.116Z,96.60
2023-03-25T11:45:45.699Z,96.80
2023-03-25T11:48:20.873Z,96.70
2023-03-25T11:50:59.945Z,97.10
2023-03-25T11:53:31.969Z,96.40
2023-03-25T11:56:12.070Z,96.80
2023-03-25T11:58:41.204Z,97.70
2023-03-25T12:01:44.810Z,98.40
2023-03-25T12:04:20.495Z,99.50
2023-03-25T12:07:22.567Z,99.90
2023-03-25T12:10:05.810Z,99.90
2023-03-25T12:12:59.696Z,99.90
2023-03-25T12:15:47.334Z,99.90
2023-03-25T12:18:29.596Z,99.90
2023-03-25T12:21:44.432Z,99.90
2023-03-25T12:24:45.041Z,99.90
2023-03-25T12:27:44.366Z,99.90
2023-03-25T12:30:28.406Z,99.90
2023-03-25T12:33:18.705Z,99.90
2023-03-25T12:36:28.672Z,99.90
2023-03-25T12:39:39.551Z,99.90
2023-03-25T12:42:55.534Z,99.90
2023-03-25T12:46:05.650Z,99.90
2023-03-25T12:49:30.820Z,99.90
2023-03-25T12:52:22.170Z,99.90
2023-03-25T12:55:20.430Z,99.90
2023-03-25T12:58:27.270Z,99.90
2023-03-25T13:01:10.326Z,99.90
2023-03-25T13:03:56.428Z,99.90
2023-03-25T13:06:45.833Z,99.90
2023-03-25T13:10:06.215Z,99.90
2023-03-25T13:13:04.178Z,99.90
2023-03-25T13:15:55.303Z,99.90
2023-03-25T13:18:44.803Z,99.90
2023-03-25T13:21:32.266Z,99.90
2023-03-25T13:24:50.038Z,99.90
2023-03-25T13:27:23.020Z,99.90
2023-03-25T13:29:59.277Z,99.90
2023-03-25T13:32:48.558Z,99.90
2023-03-25T13:35:35.644Z,99.90
2023-03-25T13:38:14.008Z,99.90
2023-03-25T13:40:51.649Z,99.90
2023-03-25T13:43:32.317Z,99.90
2023-03-25T13:46:10.967Z,99.90
2023-03-25T13:49:07.914Z,99.90
2023-03-25T13:54:28.159Z,99.90
2023-03-25T13:57:55.748Z,99.90
2023-03-25T14:01:15.663Z,99.90
2023-03-25T14:04:10.242Z,99.90
2023-03-25T14:07:41.351Z,99.90
2023-03-25T14:10:40.530Z,99.90
2023-03-25T14:14:46.926Z,99.90
2023-03-25T14:21:31.512Z,99.90
2023-03-25T14:27:35.337Z,99.90
2023-03-25T14:30:22.446Z,99.90
2023-03-25T14:33:04.429Z,99.90
2023-03-25T14:35:35.795Z,99.90
2023-03-25T14:38:09.438Z,99.90
2023-03-25T14:41:01.326Z,99.90
2023-03-25T14:43:53.241Z,99.90
2023-03-25T14:46:47.796Z,99.90
2023-03-25T14:49:34.205Z,99.90
2023-03-25T14:53:11.683Z,99.90
2023-03-25T14:55:48.547Z,99.90
2023-03-25T14:58:34.737Z,99.90
2023-03-25T15:01:46.824Z,99.90
2023-03-25T15:04:36.280Z,99.90
2023-03-25T15:07:14.307Z,99.90
2023-03-25T15:10:01.341Z,99.90
2023-03-25T15:12:36.786Z,99.90
2023-03-25T15:15:58.745Z,99.90
2023-03-25T15:22:14.123Z,99.90
2023-03-25T15:25:04.177Z,99.90
2023-03-25T15:27:58.584Z,99.90
2023-03-25T15:31:02.163Z,99.90
2023-03-25T15:34:05.566Z,99.90
2023-03-25T15:41:22.021Z,99.90
2023-03-25T15:44:21.785Z,99.90
2023-03-25T15:47:49.181Z,99.90
2023-03-25T15:50:53.653Z,99.90
2023-03-25T15:54:04.056Z,99.90
2023-03-25T15:56:49.978Z,99.90
2023-03-25T15:59:25.433Z,99.90
2023-03-25T16:01:54.053Z,99.90
2023-03-25T16:08:12.301Z,99.90
2023-03-25T16:10:57.877Z,99.90
2023-03-25T16:13:34.598Z,99.90
2023-03-25T16:21:25.555Z,99.90
2023-03-25T16:23:59.336Z,99.90
2023-03-25T16:26:53.308Z,99.90
2023-03-25T16:29:48.427Z,99.90
2023-03-25T16:33:01.883Z,99.90
2023-03-25T16:35:29.643Z,99.90
2023-03-25T16:37:58.736Z,99.90
2023-03-25T16:40:32.781Z,99.90
2023-03-25T16:43:30.686Z,99.90
2023-03-25T16:47:44.935Z,99.90
2023-03-25T16:51:16.999Z,99.90
2023-03-25T16:55:24.238Z,99.90
2023-03-25T17:01:07.457Z,99.90
2023-03-25T17:04:19.157Z,99.90
2023-03-25T17:07:36.576Z,99.90
2023-03-25T17:10:58.444Z,99.90
2023-03-25T17:13:52.251Z,99.90
2023-03-25T17:16:23.015Z,99.90
2023-03-25T17:18:55.751Z,99.90
2023-03-25T17:24:51.057Z,99.90
2023-03-25T17:27:27.450Z,99.90
2023-03-25T17:30:03.506Z,99.90
2023-03-25T17:32:45.681Z,99.90
2023-03-25T17:35:31.744Z,99.90
2023-03-25T17:38:00.042Z,99.90
2023-03-25T17:40:29.706Z,99.90
2023-03-25T17:42:58.282Z,99.90
2023-03-25T17:45:26.432Z,99.90
2023-03-25T17:47:53.845Z,99.90
2023-03-25T17:50:25.981Z,99.90
2023-03-25T17:52:54.160Z,99.90
2023-03-25T17:55:22.213Z,99.90
2023-03-25T17:57:50.520Z,99.90
2023-03-25T18:00:18.967Z,99.90
2023-03-25T18:02:49.319Z,99.90
2023-03-25T18:05:51.433Z,99.90
2023-03-25T18:08:23.396Z,99.90
2023-03-25T18:11:01.623Z,99.90
2023-03-25T18:13:59.435Z,99.90
2023-03-25T18:16:48.434Z,99.90
2023-03-25T18:19:25.880Z,99.90
2023-03-25T18:21:54.579Z,99.90
2023-03-25T18:24:51.159Z,99.90
2023-03-25T18:27:42.681Z,99.90
2023-03-25T18:30:40.713Z,99.90
2023-03-25T18:33:26.463Z,99.90
2023-03-25T18:35:56.651Z,99.90
2023-03-25T18:38:26.767Z,99.90
2023-03-25T18:41:01.109Z,99.90
2023-03-25T18:43:38.166Z,99.90
2023-03-25T18:46:05.830Z,99.90
2023-03-25T18:48:53.578Z,99.90
2023-03-25T18:51:21.698Z,99.90
2023-03-25T18:54:54.435Z,99.90
2023-03-25T18:57:53.424Z,99.90
2023-03-25T19:00:33.110Z,99.90
2023-03-25T19:03:00.865Z,99.90
2023-03-25T19:05:28.545Z,99.90
2023-03-25T19:08:37.332Z,99.90
2023-03-25T19:11:19.096Z,99.90
2023-03-25T19:13:48.472Z,99.90
2023-03-25T19:16:16.220Z,99.90
2023-03-25T19:18:43.935Z,99.90
2023-03-25T19:21:20.211Z,99.90
2023-03-25T19:23:48.354Z,99.90
2023-03-25T19:26:16.092Z,99.90
2023-03-25T19:28:43.451Z,99.90
2023-03-25T19:31:16.568Z,99.90
2023-03-25T19:33:44.281Z,99.90
2023-03-25T19:36:19.006Z,99.90
2023-03-25T19:38:46.697Z,99.90
2023-03-25T19:41:16.821Z,99.90
2023-03-25T19:43:44.667Z,99.90
2023-03-25T19:46:12.764Z,99.90
2023-03-25T19:48:40.226Z,99.90
2023-03-25T19:51:07.617Z,99.90
2023-03-25T19:53:35.153Z,99.90
2023-03-25T19:56:05.444Z,99.90
2023-03-25T19:58:34.987Z,99.90
2023-03-25T20:01:02.511Z,99.90
2023-03-25T20:03:47.909Z,99.90
2023-03-25T20:06:40.442Z,99.90
2023-03-25T20:12:37.000Z,99.90
2023-03-25T20:25:47.367Z,99.90
2023-03-25T20:28:14.734Z,99.90
2023-03-25T20:30:42.045Z,99.90
2023-03-25T20:33:09.606Z,99.90
2023-03-25T20:35:37.372Z,99.90
2023-03-25T20:38:05.053Z,99.90
2023-03-25T20:41:06.040Z,99.90
2023-03-25T20:44:01.544Z,99.90
2023-03-25T20:51:13.399Z,99.90
2023-03-25T21:05:12.637Z,99.90
2023-03-25T21:07:54.994Z,99.90
2023-03-25T21:10:22.595Z,99.90
2023-03-25T21:12:50.300Z,99.90
2023-03-25T21:15:18.349Z,99.90
2023-03-25T21:22:07.721Z,99.90
2023-03-25T21:24:36.225Z,99.90
2023-03-25T21:27:52.808Z,99.90
2023-03-25T21:50:36.772Z,99.90
2023-03-25T22:02:48.134Z,99.90
2023-03-25T22:14:09.954Z,99.90
2023-03-25T22:16:38.018Z,99.90
2023-03-25T22:19:07.014Z,99.90
2023-03-25T22:21:37.719Z,99.90
2023-03-25T22:24:49.427Z,99.90
2023-03-25T22:27:17.042Z,99.90
2023-03-25T22:29:44.848Z,99.90
2023-03-25T22:35:46.633Z,99.90
2023-03-25T22:38:26.287Z,99.90
2023-03-25T22:40:53.550Z,99.90
2023-03-25T22:43:21.746Z,99.90
2023-03-25T22:45:59.381Z,99.90
2023-03-25T22:48:30.404Z,99.90
2023-03-25T22:50:58.432Z,99.90
2023-03-25T22:53:27.799Z,99.90
2023-03-25T22:55:57.395Z,99.90
2023-03-25T22:58:55.961Z,99.90
2023-03-25T23:01:26.151Z,99.90
2023-03-25T23:05:12.149Z,99.90
2023-03-25T23:07:39.392Z,99.90
2023-03-25T23:10:14.052Z,99.90
2023-03-25T23:12:41.472Z,99.90
2023-03-25T23:15:09.540Z,99.90
2023-03-25T23:18:07.832Z,99.90
2023-03-25T23:20:54.678Z,99.90
2023-03-25T23:23:24.500Z,99.90
2023-03-25T23:26:28.776Z,99.90
2023-03-25T23:37:14.028Z,99.90
2023-03-25T23:39:42.368Z,99.90
2023-03-25T23:42:09.787Z,99.90
2023-03-25T23:44:37.482Z,99.90
2023-03-25T23:47:05.007Z,99.90
2023-03-25T23:49:34.249Z,99.90
2023-03-25T23:52:01.748Z,99.90
2023-03-25T23:54:29.365Z,99.90
2023-03-25T23:56:57.012Z,99.90
